Waterbury, Connecticut
Current Conditions -  °F | °C
As of 7:50 AM on Sunday 23 Nov 2014 (Local Time) from KOXC Reporting Station
Broken Clouds Broken Clouds  
Wind Chill: 33°   Ceiling: 10000
Heat Index: 37°   Visibility: 10mi
Dew Point: 19°   Wind: 6mph
Humidity: 48%   Direction: 200°SSW
Pressure: 30.17"   Gusts: NA
Location:  41.55°N, 73.05°W
Report Text: KOXC 231250Z 20005KT 10SM SCT070 BKN100 03/M07 A3017
Loading
Personal Weather Stations






























Interactive Weather Map New forecast layout! Learn more

10-Day Weather Forecast

Advertisements
Track Severe Weather on mobile